AirNav   Bose Proflight Series 2 Wireless Aviation Headset
 
 364 users online  

3PS6 King Air Heliport
Kempton, Pennsylvania, USA

GOING TO KEMPTON?


FAA INFORMATION EFFECTIVE 07 NOVEMBER 2019

Location

FAA Identifier: 3PS6
Lat/Long: 40-37-21.5000N 075-54-03.0000W
40-37.358333N 075-54.050000W
40.6226389,-75.9008333
(estimated)
Elevation: 561 ft. / 171 m (estimated)
Time zone: UTC -5 (UTC -4 during Daylight Saving Time)
Zip code: 19529

Heliport Operations

Heliport use: Private use. Permission required prior to landing
Activation date: 05/2015
Control tower: no
ARTCC: NEW YORK CENTER
FSS: ALTOONA FLIGHT SERVICE STATION
Attendance: 
Segmented circle: no

Heliport Communications

WX AWOS-3PT at 22N (13 nm NE): 119.350 (570-386-3423)
WX ASOS at RDG (15 nm S): PHONE 610-372-9863
WX AWOS-3 at XLL (19 nm E): 127.875 (610-231-3111)

Nearby radio navigation aids

VOR radial/distance  VOR name  Freq  Var
ETXr293/10.2EAST TEXAS VOR/DME110.2009W
FJCr263/21.2ALLENTOWN VORTAC117.5010W
PTWr336/28.6POTTSTOWN VORTAC116.5009W
RAVr094/32.1RAVINE VORTAC114.6011W
LRPr040/35.0LANCASTER VOR/DME117.3009W

 
NDB name  Hdg/Dist  Freq  Var  ID
BELLGROVE079/31.832810WBZJ -... --.. .---

Heliport Services

Runway Information

Helipad H1

Dimensions: 70 x 70 ft. / 21 x 21 m
Surface: turf
Traffic pattern: leftleft

Heliport Ownership and Management from official FAA records

Ownership: Privately-owned

Additional Remarks

FOR CD CTC ALLENTOWN APCH AT 800-728-6322

Instrument Procedures

There are no published instrument procedures at 3PS6.

Some nearby airports with instrument procedures:

22N - Jake Arner Memorial Airport (13 nm NE)
KRDG - Reading Regional Airport/Carl A Spaatz Field (15 nm S)
KXLL - Allentown Queen City Municipal Airport (19 nm E)
KABE - Lehigh Valley International Airport (21 nm E)
KZER - Schuylkill County/Joe Zerbey Airport (22 nm W)
 
Loc | Ops | Rwys | IFR | FBO | Links
Com | Nav | Svcs | Stats | Notes
Aerial photo
No photo
 
Airport distance calculator
Flying to King Air Heliport? Find the distance to fly.

From to 3PS6

Sunrise and sunset
Times for 12-Nov-2019
 Local
(UTC-5)
 Zulu
(UTC)
Morning civil twilight06:1911:19
Sunrise06:4811:48
Sunset16:4821:48
Evening civil twilight17:1722:17

Current date and time
Zulu (UTC)  12-Nov-2019 06:55:20
Local (UTC-5)  12-Nov-2019 01:55:20
 
METAR
K22N 
13nm NE 
120638Z AUTO 00000KT 10SM SCT110 06/05 A2973 RMK AO2
KRDG 
16nm S 
120554Z 20007KT 10SM CLR 13/08 A2973 RMK AO2 SLP073 T01330083 10144 20128 56020
KXLL 
19nm E 
120635Z AUTO 19005KT 10SM CLR 12/07 A2973 RMK AO2
KABE 
21nm E 
120551Z 24003KT 10SM CLR 12/06 A2973 RMK AO2 SLP067 T01170056 10144 20083 58029
KHZL 
22nm N 
120637Z AUTO 20006KT 10SM -RA SCT070 BKN080 OVC120 12/03 A2974 RMK AO2
TAF
KRDG 
16nm S 
120525Z 1206/1306 18008KT P6SM BKN150 WS020/23035KT TEMPO 1208/1210 4SM -SHRA OVC025 FM121000 25007KT P6SM OVC040 TEMPO 1210/1212 4SM -SHRA OVC025 FM121200 30011KT 6SM BR VCSH OVC020 TEMPO 1212/1214 4SM -RASN OVC025 FM121400 31015G25KT P6SM OVC050 FM122000 32015G25KT P6SM SCT150 FM130100 32015KT P6SM SKC
NOTAMs
Click for the latest NOTAMs
NOTAMs are issued by the DoD/FAA and will open in a separate window not controlled by AirNav.

 

 
 

Would you like to see your business listed on this page?

 If your business provides an interesting product or service to pilots, flight crews, aircraft, or users of the King Air Heliport, you should consider listing it here.  To start the listing process, click on the button below
 
Add a business
 

Other Pages about King Air Heliport

Update a link
 
Copyright © AirNav, LLC. All rights reserved. Privacy Policy  Contact